sensor_id;sensor_type;location;lat;lon;timestamp;temperature;humidity
24402;DHT22;12539;48.808;11.292;2023-04-06T00:01:21;3.10;97.60
24402;DHT22;12539;48.808;11.292;2023-04-06T00:03:47;3.10;97.60
24402;DHT22;12539;48.808;11.292;2023-04-06T00:06:12;3.10;98.00
24402;DHT22;12539;48.808;11.292;2023-04-06T00:14:25;3.20;97.70
24402;DHT22;12539;48.808;11.292;2023-04-06T00:16:51;3.10;97.70
24402;DHT22;12539;48.808;11.292;2023-04-06T00:19:16;3.00;97.90
24402;DHT22;12539;48.808;11.292;2023-04-06T00:21:43;3.00;98.20
24402;DHT22;12539;48.808;11.292;2023-04-06T00:30:15;3.00;98.10
24402;DHT22;12539;48.808;11.292;2023-04-06T00:32:41;2.90;97.30
24402;DHT22;12539;48.808;11.292;2023-04-06T00:35:06;2.80;96.90
24402;DHT22;12539;48.808;11.292;2023-04-06T00:37:32;2.70;97.40
24402;DHT22;12539;48.808;11.292;2023-04-06T00:39:58;2.70;97.50
24402;DHT22;12539;48.808;11.292;2023-04-06T00:42:23;2.60;97.20
24402;DHT22;12539;48.808;11.292;2023-04-06T00:44:55;2.60;97.60
24402;DHT22;12539;48.808;11.292;2023-04-06T00:47:22;2.60;96.60
24402;DHT22;12539;48.808;11.292;2023-04-06T00:49:47;2.50;96.90
24402;DHT22;12539;48.808;11.292;2023-04-06T00:52:13;2.50;97.70
24402;DHT22;12539;48.808;11.292;2023-04-06T00:54:39;2.60;97.10
24402;DHT22;12539;48.808;11.292;2023-04-06T00:57:04;2.50;96.30
24402;DHT22;12539;48.808;11.292;2023-04-06T00:59:30;2.30;95.50
24402;DHT22;12539;48.808;11.292;2023-04-06T01:01:56;2.10;95.50
24402;DHT22;12539;48.808;11.292;2023-04-06T01:04:22;2.00;96.10
24402;DHT22;12539;48.808;11.292;2023-04-06T01:06:50;1.90;96.70
24402;DHT22;12539;48.808;11.292;2023-04-06T01:09:16;1.80;96.50
24402;DHT22;12539;48.808;11.292;2023-04-06T01:11:42;1.80;97.50
24402;DHT22;12539;48.808;11.292;2023-04-06T01:14:08;1.90;96.70
24402;DHT22;12539;48.808;11.292;2023-04-06T01:16:33;1.70;96.40
24402;DHT22;12539;48.808;11.292;2023-04-06T01:18:59;1.60;96.30
24402;DHT22;12539;48.808;11.292;2023-04-06T01:21:25;1.60;97.00
24402;DHT22;12539;48.808;11.292;2023-04-06T01:23:51;1.70;97.40
24402;DHT22;12539;48.808;11.292;2023-04-06T01:26:16;1.70;97.50
24402;DHT22;12539;48.808;11.292;2023-04-06T01:28:42;1.80;98.30
24402;DHT22;12539;48.808;11.292;2023-04-06T01:31:08;1.80;98.00
24402;DHT22;12539;48.808;11.292;2023-04-06T01:33:34;1.80;97.70
24402;DHT22;12539;48.808;11.292;2023-04-06T01:35:59;1.90;97.80
24402;DHT22;12539;48.808;11.292;2023-04-06T01:38:25;1.90;98.00
24402;DHT22;12539;48.808;11.292;2023-04-06T01:40:51;2.00;97.70
24402;DHT22;12539;48.808;11.292;2023-04-06T01:43:17;2.00;97.30
24402;DHT22;12539;48.808;11.292;2023-04-06T01:45:43;1.90;96.40
24402;DHT22;12539;48.808;11.292;2023-04-06T01:48:08;1.80;96.80
24402;DHT22;12539;48.808;11.292;2023-04-06T01:50:34;1.80;96.60
24402;DHT22;12539;48.808;11.292;2023-04-06T01:52:59;1.70;97.10
24402;DHT22;12539;48.808;11.292;2023-04-06T01:55:25;1.80;98.10
24402;DHT22;12539;48.808;11.292;2023-04-06T01:57:51;1.70;96.90
24402;DHT22;12539;48.808;11.292;2023-04-06T02:00:17;1.50;96.70
24402;DHT22;12539;48.808;11.292;2023-04-06T02:02:42;1.50;97.80
24402;DHT22;12539;48.808;11.292;2023-04-06T02:05:08;1.60;97.80
24402;DHT22;12539;48.808;11.292;2023-04-06T02:07:33;1.60;97.90
24402;DHT22;12539;48.808;11.292;2023-04-06T02:09:59;1.50;96.80
24402;DHT22;12539;48.808;11.292;2023-04-06T02:12:25;1.50;97.70
24402;DHT22;12539;48.808;11.292;2023-04-06T02:14:50;1.60;98.60
24402;DHT22;12539;48.808;11.292;2023-04-06T02:17:16;1.70;99.00
24402;DHT22;12539;48.808;11.292;2023-04-06T02:19:42;1.80;99.00
24402;DHT22;12539;48.808;11.292;2023-04-06T02:22:09;1.90;98.70
24402;DHT22;12539;48.808;11.292;2023-04-06T02:24:34;1.90;98.00
24402;DHT22;12539;48.808;11.292;2023-04-06T02:27:00;2.00;98.20
24402;DHT22;12539;48.808;11.292;2023-04-06T02:29:26;2.00;97.90
24402;DHT22;12539;48.808;11.292;2023-04-06T02:31:52;2.00;97.50
24402;DHT22;12539;48.808;11.292;2023-04-06T02:34:17;2.00;97.60
24402;DHT22;12539;48.808;11.292;2023-04-06T02:36:44;1.90;97.20
24402;DHT22;12539;48.808;11.292;2023-04-06T02:39:09;1.80;97.70
24402;DHT22;12539;48.808;11.292;2023-04-06T02:41:35;1.80;97.50
24402;DHT22;12539;48.808;11.292;2023-04-06T02:44:01;1.70;97.70
24402;DHT22;12539;48.808;11.292;2023-04-06T02:46:26;1.70;97.70
24402;DHT22;12539;48.808;11.292;2023-04-06T02:48:52;1.70;97.90
24402;DHT22;12539;48.808;11.292;2023-04-06T02:51:18;1.60;97.70
24402;DHT22;12539;48.808;11.292;2023-04-06T02:53:43;1.50;97.30
24402;DHT22;12539;48.808;11.292;2023-04-06T02:56:09;1.40;97.40
24402;DHT22;12539;48.808;11.292;2023-04-06T02:58:35;1.40;98.00
24402;DHT22;12539;48.808;11.292;2023-04-06T03:01:00;1.40;98.00
24402;DHT22;12539;48.808;11.292;2023-04-06T03:03:26;1.30;97.70
24402;DHT22;12539;48.808;11.292;2023-04-06T03:05:51;1.30;98.30
24402;DHT22;12539;48.808;11.292;2023-04-06T03:08:17;1.40;98.60
24402;DHT22;12539;48.808;11.292;2023-04-06T03:10:42;1.40;98.70
24402;DHT22;12539;48.808;11.292;2023-04-06T03:13:08;1.40;99.10
24402;DHT22;12539;48.808;11.292;2023-04-06T03:15:33;1.50;99.30
24402;DHT22;12539;48.808;11.292;2023-04-06T03:17:59;1.60;99.20
24402;DHT22;12539;48.808;11.292;2023-04-06T03:29:17;1.80;99.30
24402;DHT22;12539;48.808;11.292;2023-04-06T03:31:42;1.80;98.90
24402;DHT22;12539;48.808;11.292;2023-04-06T03:34:08;1.80;98.60
24402;DHT22;12539;48.808;11.292;2023-04-06T03:36:34;1.80;98.70
24402;DHT22;12539;48.808;11.292;2023-04-06T03:38:59;1.80;98.60
24402;DHT22;12539;48.808;11.292;2023-04-06T03:41:25;1.80;98.70
24402;DHT22;12539;48.808;11.292;2023-04-06T03:43:52;1.80;99.50
24402;DHT22;12539;48.808;11.292;2023-04-06T03:46:17;1.80;99.00
24402;DHT22;12539;48.808;11.292;2023-04-06T03:48:43;1.70;99.00
24402;DHT22;12539;48.808;11.292;2023-04-06T03:51:08;1.70;98.60
24402;DHT22;12539;48.808;11.292;2023-04-06T03:53:34;1.60;99.10
24402;DHT22;12539;48.808;11.292;2023-04-06T03:55:59;1.60;99.20
24402;DHT22;12539;48.808;11.292;2023-04-06T03:58:25;1.60;99.70
24402;DHT22;12539;48.808;11.292;2023-04-06T04:00:51;1.60;99.50
24402;DHT22;12539;48.808;11.292;2023-04-06T04:03:16;1.60;99.40
24402;DHT22;12539;48.808;11.292;2023-04-06T04:05:42;1.50;99.10
24402;DHT22;12539;48.808;11.292;2023-04-06T04:08:08;1.60;99.30
24402;DHT22;12539;48.808;11.292;2023-04-06T04:10:34;1.50;99.50
24402;DHT22;12539;48.808;11.292;2023-04-06T04:12:59;1.50;99.70
24402;DHT22;12539;48.808;11.292;2023-04-06T04:15:25;1.50;99.90
24402;DHT22;12539;48.808;11.292;2023-04-06T04:17:50;1.50;99.20
24402;DHT22;12539;48.808;11.292;2023-04-06T04:20:16;1.30;97.60
24402;DHT22;12539;48.808;11.292;2023-04-06T04:22:42;1.10;98.00
24402;DHT22;12539;48.808;11.292;2023-04-06T04:25:08;1.10;98.50
24402;DHT22;12539;48.808;11.292;2023-04-06T04:27:33;1.00;98.80
24402;DHT22;12539;48.808;11.292;2023-04-06T04:29:59;1.00;99.50
24402;DHT22;12539;48.808;11.292;2023-04-06T04:32:24;1.10;99.90
24402;DHT22;12539;48.808;11.292;2023-04-06T04:34:52;1.10;99.90
24402;DHT22;12539;48.808;11.292;2023-04-06T04:37:18;1.20;99.40
24402;DHT22;12539;48.808;11.292;2023-04-06T04:39:44;1.10;98.30
24402;DHT22;12539;48.808;11.292;2023-04-06T04:42:10;1.00;98.90
24402;DHT22;12539;48.808;11.292;2023-04-06T04:44:36;1.00;98.80
24402;DHT22;12539;48.808;11.292;2023-04-06T04:47:01;1.00;99.70
24402;DHT22;12539;48.808;11.292;2023-04-06T04:49:27;1.10;99.90
24402;DHT22;12539;48.808;11.292;2023-04-06T04:51:52;1.20;99.90
24402;DHT22;12539;48.808;11.292;2023-04-06T04:54:18;1.30;99.90
24402;DHT22;12539;48.808;11.292;2023-04-06T04:56:44;1.30;99.90
24402;DHT22;12539;48.808;11.292;2023-04-06T04:59:10;1.40;99.90
24402;DHT22;12539;48.808;11.292;2023-04-06T05:01:36;1.50;99.90
24402;DHT22;12539;48.808;11.292;2023-04-06T05:04:01;1.50;99.60
24402;DHT22;12539;48.808;11.292;2023-04-06T05:06:27;1.50;99.30
24402;DHT22;12539;48.808;11.292;2023-04-06T05:08:52;1.50;99.70
24402;DHT22;12539;48.808;11.292;2023-04-06T05:11:18;1.60;99.90
24402;DHT22;12539;48.808;11.292;2023-04-06T05:13:43;1.70;99.90
24402;DHT22;12539;48.808;11.292;2023-04-06T05:16:09;1.80;99.90
24402;DHT22;12539;48.808;11.292;2023-04-06T05:18:35;1.90;99.90
24402;DHT22;12539;48.808;11.292;2023-04-06T05:21:00;1.90;99.90
24402;DHT22;12539;48.808;11.292;2023-04-06T05:26:10;1.90;99.70
24402;DHT22;12539;48.808;11.292;2023-04-06T05:28:36;1.90;99.40
24402;DHT22;12539;48.808;11.292;2023-04-06T05:31:02;1.90;99.90
24402;DHT22;12539;48.808;11.292;2023-04-06T05:33:27;1.90;99.90
24402;DHT22;12539;48.808;11.292;2023-04-06T05:35:53;2.00;99.90
24402;DHT22;12539;48.808;11.292;2023-04-06T05:38:18;2.10;99.90
24402;DHT22;12539;48.808;11.292;2023-04-06T05:40:44;2.20;99.90
24402;DHT22;12539;48.808;11.292;2023-04-06T05:43:09;2.30;99.90
24402;DHT22;12539;48.808;11.292;2023-04-06T05:45:35;2.40;99.90
24402;DHT22;12539;48.808;11.292;2023-04-06T05:48:01;2.50;99.90
24402;DHT22;12539;48.808;11.292;2023-04-06T05:50:27;2.60;99.90
24402;DHT22;12539;48.808;11.292;2023-04-06T05:52:53;2.70;99.90
24402;DHT22;12539;48.808;11.292;2023-04-06T05:55:19;2.80;99.90
24402;DHT22;12539;48.808;11.292;2023-04-06T05:57:44;2.80;99.90
24402;DHT22;12539;48.808;11.292;2023-04-06T06:00:10;3.00;99.90
24402;DHT22;12539;48.808;11.292;2023-04-06T06:02:36;3.70;99.90
24402;DHT22;12539;48.808;11.292;2023-04-06T06:05:02;4.20;99.80
24402;DHT22;12539;48.808;11.292;2023-04-06T06:07:27;4.20;99.10
24402;DHT22;12539;48.808;11.292;2023-04-06T06:09:56;4.20;98.60
24402;DHT22;12539;48.808;11.292;2023-04-06T06:12:21;4.20;98.70
24402;DHT22;12539;48.808;11.292;2023-04-06T06:14:47;4.90;97.10
24402;DHT22;12539;48.808;11.292;2023-04-06T06:17:12;5.50;94.90
24402;DHT22;12539;48.808;11.292;2023-04-06T06:19:40;5.50;95.10
24402;DHT22;12539;48.808;11.292;2023-04-06T06:22:06;5.20;95.80
24402;DHT22;12539;48.808;11.292;2023-04-06T06:24:31;5.10;95.80
24402;DHT22;12539;48.808;11.292;2023-04-06T06:26:57;5.20;96.80
24402;DHT22;12539;48.808;11.292;2023-04-06T06:29:23;5.40;94.90
24402;DHT22;12539;48.808;11.292;2023-04-06T06:31:49;5.90;94.60
24402;DHT22;12539;48.808;11.292;2023-04-06T06:34:15;6.00;91.80
24402;DHT22;12539;48.808;11.292;2023-04-06T06:36:40;5.80;91.80
24402;DHT22;12539;48.808;11.292;2023-04-06T06:39:06;5.40;91.00
24402;DHT22;12539;48.808;11.292;2023-04-06T06:41:32;5.10;91.60
24402;DHT22;12539;48.808;11.292;2023-04-06T06:43:57;4.90;91.50
24402;DHT22;12539;48.808;11.292;2023-04-06T06:46:23;4.70;92.20
24402;DHT22;12539;48.808;11.292;2023-04-06T06:48:48;4.60;92.30
24402;DHT22;12539;48.808;11.292;2023-04-06T06:51:14;4.60;93.10
24402;DHT22;12539;48.808;11.292;2023-04-06T06:53:39;4.60;92.70
24402;DHT22;12539;48.808;11.292;2023-04-06T06:56:05;4.60;92.50
24402;DHT22;12539;48.808;11.292;2023-04-06T06:58:31;4.60;91.70
24402;DHT22;12539;48.808;11.292;2023-04-06T07:00:57;4.60;92.70
24402;DHT22;12539;48.808;11.292;2023-04-06T07:03:23;4.60;92.40
24402;DHT22;12539;48.808;11.292;2023-04-06T07:05:49;4.70;91.70
24402;DHT22;12539;48.808;11.292;2023-04-06T07:08:22;4.70;92.10
24402;DHT22;12539;48.808;11.292;2023-04-06T07:10:48;4.80;91.10
24402;DHT22;12539;48.808;11.292;2023-04-06T07:13:14;4.80;91.60
24402;DHT22;12539;48.808;11.292;2023-04-06T07:15:45;4.80;91.30
24402;DHT22;12539;48.808;11.292;2023-04-06T07:18:11;4.90;91.80
24402;DHT22;12539;48.808;11.292;2023-04-06T07:20:37;5.00;91.60
24402;DHT22;12539;48.808;11.292;2023-04-06T07:23:02;5.10;91.80
24402;DHT22;12539;48.808;11.292;2023-04-06T07:25:28;5.10;92.00
24402;DHT22;12539;48.808;11.292;2023-04-06T07:27:54;5.20;92.30
24402;DHT22;12539;48.808;11.292;2023-04-06T07:30:20;5.40;92.30
24402;DHT22;12539;48.808;11.292;2023-04-06T07:32:47;5.50;92.00
24402;DHT22;12539;48.808;11.292;2023-04-06T07:35:13;5.50;92.10
24402;DHT22;12539;48.808;11.292;2023-04-06T07:37:38;5.60;92.20
24402;DHT22;12539;48.808;11.292;2023-04-06T07:40:04;5.70;91.90
24402;DHT22;12539;48.808;11.292;2023-04-06T07:42:30;5.70;92.10
24402;DHT22;12539;48.808;11.292;2023-04-06T07:44:56;5.80;92.00
24402;DHT22;12539;48.808;11.292;2023-04-06T07:47:22;5.90;92.10
24402;DHT22;12539;48.808;11.292;2023-04-06T07:49:48;6.00;92.00
24402;DHT22;12539;48.808;11.292;2023-04-06T07:52:14;6.10;92.10
24402;DHT22;12539;48.808;11.292;2023-04-06T07:54:40;6.10;91.30
24402;DHT22;12539;48.808;11.292;2023-04-06T07:57:06;6.20;91.90
24402;DHT22;12539;48.808;11.292;2023-04-06T07:59:31;6.20;91.70
24402;DHT22;12539;48.808;11.292;2023-04-06T08:01:57;6.30;91.90
24402;DHT22;12539;48.808;11.292;2023-04-06T08:04:22;6.30;92.00
24402;DHT22;12539;48.808;11.292;2023-04-06T08:06:48;6.50;92.00
24402;DHT22;12539;48.808;11.292;2023-04-06T08:09:13;6.50;90.80
24402;DHT22;12539;48.808;11.292;2023-04-06T08:11:39;6.50;90.70
24402;DHT22;12539;48.808;11.292;2023-04-06T08:14:05;6.60;90.80
24402;DHT22;12539;48.808;11.292;2023-04-06T08:16:31;6.60;91.00
24402;DHT22;12539;48.808;11.292;2023-04-06T08:18:56;6.70;91.40
24402;DHT22;12539;48.808;11.292;2023-04-06T08:21:22;6.80;91.20
24402;DHT22;12539;48.808;11.292;2023-04-06T08:23:47;6.80;91.10
24402;DHT22;12539;48.808;11.292;2023-04-06T08:26:13;7.00;91.10
24402;DHT22;12539;48.808;11.292;2023-04-06T08:28:38;7.00;91.00
24402;DHT22;12539;48.808;11.292;2023-04-06T08:31:04;7.10;91.10
24402;DHT22;12539;48.808;11.292;2023-04-06T08:33:30;7.10;91.20
24402;DHT22;12539;48.808;11.292;2023-04-06T08:35:56;7.20;90.40
24402;DHT22;12539;48.808;11.292;2023-04-06T08:38:22;7.20;90.40
24402;DHT22;12539;48.808;11.292;2023-04-06T08:40:47;7.30;90.60
24402;DHT22;12539;48.808;11.292;2023-04-06T08:43:15;7.30;90.20
24402;DHT22;12539;48.808;11.292;2023-04-06T08:45:42;7.40;88.30
24402;DHT22;12539;48.808;11.292;2023-04-06T08:48:08;7.40;87.50
24402;DHT22;12539;48.808;11.292;2023-04-06T08:50:34;7.50;88.10
24402;DHT22;12539;48.808;11.292;2023-04-06T08:53:00;7.60;87.50
24402;DHT22;12539;48.808;11.292;2023-04-06T08:55:26;7.70;88.50
24402;DHT22;12539;48.808;11.292;2023-04-06T08:57:52;7.70;88.60
24402;DHT22;12539;48.808;11.292;2023-04-06T09:00:22;7.80;87.20
24402;DHT22;12539;48.808;11.292;2023-04-06T09:02:49;7.80;86.30
24402;DHT22;12539;48.808;11.292;2023-04-06T09:05:14;7.90;85.10
24402;DHT22;12539;48.808;11.292;2023-04-06T09:07:40;7.90;85.10
24402;DHT22;12539;48.808;11.292;2023-04-06T09:10:06;8.00;86.20
24402;DHT22;12539;48.808;11.292;2023-04-06T09:12:32;8.00;84.90
24402;DHT22;12539;48.808;11.292;2023-04-06T09:14:58;8.10;84.20
24402;DHT22;12539;48.808;11.292;2023-04-06T09:17:25;8.10;84.50
24402;DHT22;12539;48.808;11.292;2023-04-06T09:19:51;8.20;85.60
24402;DHT22;12539;48.808;11.292;2023-04-06T09:22:17;8.30;86.40
24402;DHT22;12539;48.808;11.292;2023-04-06T09:24:43;8.40;84.70
24402;DHT22;12539;48.808;11.292;2023-04-06T09:27:09;8.40;83.40
24402;DHT22;12539;48.808;11.292;2023-04-06T09:29:35;8.40;84.00
24402;DHT22;12539;48.808;11.292;2023-04-06T09:32:05;8.50;83.30
24402;DHT22;12539;48.808;11.292;2023-04-06T09:34:31;8.50;80.80
24402;DHT22;12539;48.808;11.292;2023-04-06T09:36:57;8.50;81.50
24402;DHT22;12539;48.808;11.292;2023-04-06T09:39:23;8.60;81.20
24402;DHT22;12539;48.808;11.292;2023-04-06T09:41:52;8.60;82.30
24402;DHT22;12539;48.808;11.292;2023-04-06T09:44:19;8.70;81.60
24402;DHT22;12539;48.808;11.292;2023-04-06T09:46:46;8.70;82.30
24402;DHT22;12539;48.808;11.292;2023-04-06T09:49:12;8.80;81.30
24402;DHT22;12539;48.808;11.292;2023-04-06T09:54:07;8.90;80.80
24402;DHT22;12539;48.808;11.292;2023-04-06T09:56:36;8.90;79.10
24402;DHT22;12539;48.808;11.292;2023-04-06T09:59:05;8.90;78.20
24402;DHT22;12539;48.808;11.292;2023-04-06T10:01:33;8.90;78.30
24402;DHT22;12539;48.808;11.292;2023-04-06T10:06:43;9.00;76.20
24402;DHT22;12539;48.808;11.292;2023-04-06T10:09:10;9.00;74.30
24402;DHT22;12539;48.808;11.292;2023-04-06T10:11:36;9.10;74.80
24402;DHT22;12539;48.808;11.292;2023-04-06T10:14:02;9.10;72.20
24402;DHT22;12539;48.808;11.292;2023-04-06T10:16:28;9.10;74.30
24402;DHT22;12539;48.808;11.292;2023-04-06T10:18:56;9.20;73.80
24402;DHT22;12539;48.808;11.292;2023-04-06T10:21:26;9.20;74.40
24402;DHT22;12539;48.808;11.292;2023-04-06T10:23:54;9.30;75.60
24402;DHT22;12539;48.808;11.292;2023-04-06T10:26:21;9.30;75.40
24402;DHT22;12539;48.808;11.292;2023-04-06T10:28:47;9.40;74.90
24402;DHT22;12539;48.808;11.292;2023-04-06T10:31:13;9.40;73.60
24402;DHT22;12539;48.808;11.292;2023-04-06T10:33:39;9.40;73.70
24402;DHT22;12539;48.808;11.292;2023-04-06T10:36:12;9.40;74.80
24402;DHT22;12539;48.808;11.292;2023-04-06T10:38:38;9.40;74.60
24402;DHT22;12539;48.808;11.292;2023-04-06T10:41:05;9.40;72.30
24402;DHT22;12539;48.808;11.292;2023-04-06T10:43:33;9.50;69.40
24402;DHT22;12539;48.808;11.292;2023-04-06T10:45:59;9.50;70.30
24402;DHT22;12539;48.808;11.292;2023-04-06T10:48:35;9.50;71.60
24402;DHT22;12539;48.808;11.292;2023-04-06T10:51:01;9.60;68.50
24402;DHT22;12539;48.808;11.292;2023-04-06T10:53:27;9.60;69.90
24402;DHT22;12539;48.808;11.292;2023-04-06T10:55:56;9.70;69.80
24402;DHT22;12539;48.808;11.292;2023-04-06T10:58:25;9.70;69.00
24402;DHT22;12539;48.808;11.292;2023-04-06T11:00:51;9.80;67.10
24402;DHT22;12539;48.808;11.292;2023-04-06T11:03:17;9.80;67.70
24402;DHT22;12539;48.808;11.292;2023-04-06T11:05:47;9.90;67.90
24402;DHT22;12539;48.808;11.292;2023-04-06T11:08:30;9.90;67.80
24402;DHT22;12539;48.808;11.292;2023-04-06T11:13:38;9.90;69.70
24402;DHT22;12539;48.808;11.292;2023-04-06T11:16:04;9.90;69.60
24402;DHT22;12539;48.808;11.292;2023-04-06T11:18:29;9.90;68.20
24402;DHT22;12539;48.808;11.292;2023-04-06T11:20:55;9.80;68.30
24402;DHT22;12539;48.808;11.292;2023-04-06T11:23:24;9.80;68.10
24402;DHT22;12539;48.808;11.292;2023-04-06T11:25:51;9.80;69.70
24402;DHT22;12539;48.808;11.292;2023-04-06T11:28:17;9.80;67.20
24402;DHT22;12539;48.808;11.292;2023-04-06T11:30:42;9.90;69.10
24402;DHT22;12539;48.808;11.292;2023-04-06T11:33:08;9.90;69.70
24402;DHT22;12539;48.808;11.292;2023-04-06T11:35:34;9.90;67.30
24402;DHT22;12539;48.808;11.292;2023-04-06T11:38:02;9.90;68.30
24402;DHT22;12539;48.808;11.292;2023-04-06T11:40:28;9.80;68.20
24402;DHT22;12539;48.808;11.292;2023-04-06T11:42:55;9.90;69.10
24402;DHT22;12539;48.808;11.292;2023-04-06T11:45:21;9.90;68.80
24402;DHT22;12539;48.808;11.292;2023-04-06T11:47:55;9.90;69.90
24402;DHT22;12539;48.808;11.292;2023-04-06T11:50:20;10.00;69.10
24402;DHT22;12539;48.808;11.292;2023-04-06T11:52:46;10.00;69.90
24402;DHT22;12539;48.808;11.292;2023-04-06T11:55:22;10.00;70.70
24402;DHT22;12539;48.808;11.292;2023-04-06T11:57:48;10.00;70.20
24402;DHT22;12539;48.808;11.292;2023-04-06T12:00:15;10.10;70.40
24402;DHT22;12539;48.808;11.292;2023-04-06T12:02:44;10.10;70.20
24402;DHT22;12539;48.808;11.292;2023-04-06T12:05:10;10.10;67.70
24402;DHT22;12539;48.808;11.292;2023-04-06T12:07:36;10.10;69.60
24402;DHT22;12539;48.808;11.292;2023-04-06T12:10:02;10.10;67.50
24402;DHT22;12539;48.808;11.292;2023-04-06T12:12:28;10.10;68.10
24402;DHT22;12539;48.808;11.292;2023-04-06T12:14:54;10.20;68.90
24402;DHT22;12539;48.808;11.292;2023-04-06T12:17:20;10.20;67.70
24402;DHT22;12539;48.808;11.292;2023-04-06T12:19:46;10.30;68.60
24402;DHT22;12539;48.808;11.292;2023-04-06T12:22:11;10.40;69.10
24402;DHT22;12539;48.808;11.292;2023-04-06T12:24:37;10.50;69.90
24402;DHT22;12539;48.808;11.292;2023-04-06T12:27:02;10.50;69.30
24402;DHT22;12539;48.808;11.292;2023-04-06T12:29:28;10.60;67.50
24402;DHT22;12539;48.808;11.292;2023-04-06T12:31:54;10.70;68.40
24402;DHT22;12539;48.808;11.292;2023-04-06T12:34:19;10.70;66.10
24402;DHT22;12539;48.808;11.292;2023-04-06T12:39:48;10.70;67.30
24402;DHT22;12539;48.808;11.292;2023-04-06T12:42:14;10.70;67.70
24402;DHT22;12539;48.808;11.292;2023-04-06T12:44:40;10.80;68.50
24402;DHT22;12539;48.808;11.292;2023-04-06T12:47:07;10.80;68.10
24402;DHT22;12539;48.808;11.292;2023-04-06T12:49:33;10.90;66.10
24402;DHT22;12539;48.808;11.292;2023-04-06T12:51:59;11.00;67.00
24402;DHT22;12539;48.808;11.292;2023-04-06T12:54:24;11.00;67.30
24402;DHT22;12539;48.808;11.292;2023-04-06T12:56:51;11.00;64.90
24402;DHT22;12539;48.808;11.292;2023-04-06T12:59:17;11.10;62.90
24402;DHT22;12539;48.808;11.292;2023-04-06T13:01:43;11.10;62.20
24402;DHT22;12539;48.808;11.292;2023-04-06T13:04:09;11.10;64.00
24402;DHT22;12539;48.808;11.292;2023-04-06T13:06:35;11.10;64.50
24402;DHT22;12539;48.808;11.292;2023-04-06T13:09:00;11.10;64.80
24402;DHT22;12539;48.808;11.292;2023-04-06T13:11:26;11.20;63.70
24402;DHT22;12539;48.808;11.292;2023-04-06T13:13:52;11.40;63.80
24402;DHT22;12539;48.808;11.292;2023-04-06T13:16:17;11.50;61.40
24402;DHT22;12539;48.808;11.292;2023-04-06T13:18:43;11.60;61.00
24402;DHT22;12539;48.808;11.292;2023-04-06T13:21:09;11.70;59.10
24402;DHT22;12539;48.808;11.292;2023-04-06T13:23:40;11.80;60.30
24402;DHT22;12539;48.808;11.292;2023-04-06T13:26:06;11.90;59.70
24402;DHT22;12539;48.808;11.292;2023-04-06T13:28:33;11.90;61.40
24402;DHT22;12539;48.808;11.292;2023-04-06T13:30:59;12.00;58.90
24402;DHT22;12539;48.808;11.292;2023-04-06T13:33:25;12.00;56.90
24402;DHT22;12539;48.808;11.292;2023-04-06T13:35:51;11.90;58.60
24402;DHT22;12539;48.808;11.292;2023-04-06T13:41:20;12.00;59.00
24402;DHT22;12539;48.808;11.292;2023-04-06T13:43:46;12.00;59.90
24402;DHT22;12539;48.808;11.292;2023-04-06T13:46:11;12.10;58.80
24402;DHT22;12539;48.808;11.292;2023-04-06T13:48:37;12.10;58.70
24402;DHT22;12539;48.808;11.292;2023-04-06T13:51:12;12.10;57.60
24402;DHT22;12539;48.808;11.292;2023-04-06T13:53:38;12.10;57.00
24402;DHT22;12539;48.808;11.292;2023-04-06T13:56:07;12.10;57.50
24402;DHT22;12539;48.808;11.292;2023-04-06T13:58:33;12.10;57.80
24402;DHT22;12539;48.808;11.292;2023-04-06T14:01:03;12.20;58.20
24402;DHT22;12539;48.808;11.292;2023-04-06T14:03:29;12.20;58.80
24402;DHT22;12539;48.808;11.292;2023-04-06T14:05:55;12.30;58.30
24402;DHT22;12539;48.808;11.292;2023-04-06T14:08:20;12.30;58.90
24402;DHT22;12539;48.808;11.292;2023-04-06T14:10:46;12.30;59.00
24402;DHT22;12539;48.808;11.292;2023-04-06T14:13:11;12.30;57.80
24402;DHT22;12539;48.808;11.292;2023-04-06T14:15:37;12.30;58.50
24402;DHT22;12539;48.808;11.292;2023-04-06T14:18:02;12.40;59.70
24402;DHT22;12539;48.808;11.292;2023-04-06T14:20:28;12.40;57.90
24402;DHT22;12539;48.808;11.292;2023-04-06T14:22:53;12.40;56.90
24402;DHT22;12539;48.808;11.292;2023-04-06T14:25:20;12.40;56.60
24402;DHT22;12539;48.808;11.292;2023-04-06T14:27:46;12.40;54.70
24402;DHT22;12539;48.808;11.292;2023-04-06T14:30:12;12.40;54.80
24402;DHT22;12539;48.808;11.292;2023-04-06T14:32:38;12.50;56.00
24402;DHT22;12539;48.808;11.292;2023-04-06T14:35:04;12.50;55.70
24402;DHT22;12539;48.808;11.292;2023-04-06T14:37:30;12.50;56.60
24402;DHT22;12539;48.808;11.292;2023-04-06T14:39:55;12.60;56.30
24402;DHT22;12539;48.808;11.292;2023-04-06T14:42:21;12.50;54.00
24402;DHT22;12539;48.808;11.292;2023-04-06T14:44:47;12.40;53.70
24402;DHT22;12539;48.808;11.292;2023-04-06T14:47:13;12.30;54.40
24402;DHT22;12539;48.808;11.292;2023-04-06T14:49:41;12.20;55.50
24402;DHT22;12539;48.808;11.292;2023-04-06T14:52:06;12.10;56.60
24402;DHT22;12539;48.808;11.292;2023-04-06T14:54:32;12.10;57.60
24402;DHT22;12539;48.808;11.292;2023-04-06T14:56:57;12.00;56.80
24402;DHT22;12539;48.808;11.292;2023-04-06T14:59:23;11.90;57.50
24402;DHT22;12539;48.808;11.292;2023-04-06T15:01:50;11.90;54.10
24402;DHT22;12539;48.808;11.292;2023-04-06T15:04:16;11.90;55.90
24402;DHT22;12539;48.808;11.292;2023-04-06T15:06:42;11.90;57.10
24402;DHT22;12539;48.808;11.292;2023-04-06T15:09:07;11.90;56.70
24402;DHT22;12539;48.808;11.292;2023-04-06T15:11:33;12.00;56.70
24402;DHT22;12539;48.808;11.292;2023-04-06T15:13:59;12.00;55.40
24402;DHT22;12539;48.808;11.292;2023-04-06T15:16:25;12.10;55.80
24402;DHT22;12539;48.808;11.292;2023-04-06T15:18:50;12.10;54.20
24402;DHT22;12539;48.808;11.292;2023-04-06T15:21:16;12.10;54.90
24402;DHT22;12539;48.808;11.292;2023-04-06T15:23:42;12.10;55.60
24402;DHT22;12539;48.808;11.292;2023-04-06T15:26:08;12.20;55.60
24402;DHT22;12539;48.808;11.292;2023-04-06T15:28:33;12.20;55.70
24402;DHT22;12539;48.808;11.292;2023-04-06T15:30:59;12.20;56.60
24402;DHT22;12539;48.808;11.292;2023-04-06T15:33:28;12.20;55.50
24402;DHT22;12539;48.808;11.292;2023-04-06T15:35:53;12.20;53.60
24402;DHT22;12539;48.808;11.292;2023-04-06T15:38:19;12.20;54.60
24402;DHT22;12539;48.808;11.292;2023-04-06T15:40:46;12.10;54.80
24402;DHT22;12539;48.808;11.292;2023-04-06T15:43:12;12.10;55.50
24402;DHT22;12539;48.808;11.292;2023-04-06T15:45:38;12.10;56.80
24402;DHT22;12539;48.808;11.292;2023-04-06T15:48:04;12.10;57.20
24402;DHT22;12539;48.808;11.292;2023-04-06T15:50:30;12.00;57.30
24402;DHT22;12539;48.808;11.292;2023-04-06T15:52:56;12.00;55.70
24402;DHT22;12539;48.808;11.292;2023-04-06T15:55:22;11.90;54.70
24402;DHT22;12539;48.808;11.292;2023-04-06T15:57:47;11.90;56.40